Time;durP1;ratioP1;P1;durP2;ratioP2;P2;SDS_P1;SDS_P2;PMS_P1;PMS_P2;Temp;Humidity;BMP_temperature;BMP_pressure;BME280_temperature;BME280_humidity;BME280_pressure;Samples;Min_cycle;Max_cycle;Signal;HPM_P1;HPM_P2
2022/03/14 00:01:36;;;;;;;14.35;6.22;;;;;;;-10.35;53.50;99925.06;4937672;29;20072;-84
2022/03/14 00:04:02;;;;;;;17.38;7.18;;;;;;;-10.40;53.50;99926.72;4939366;29;20040;-83
2022/03/14 00:06:28;;;;;;;20.98;7.85;;;;;;;-10.38;53.52;99928.50;4919887;29;20060;-83
2022/03/14 00:08:55;;;;;;;13.77;6.80;;;;;;;-10.36;53.79;99929.38;4933442;29;20460;-84
2022/03/14 00:11:23;;;;;;;11.88;6.65;;;;;;;-10.32;53.81;99935.44;4918675;29;20177;-82
2022/03/14 00:13:50;;;;;;;12.98;6.38;;;;;;;-10.37;53.75;99926.78;4917949;29;20044;-83
2022/03/14 00:16:25;;;;;;;10.07;6.30;;;;;;;-10.40;53.96;99943.09;4932655;29;20499;-83
2022/03/14 00:18:53;;;;;;;10.88;6.13;;;;;;;-10.38;53.84;99935.34;4916982;29;20048;-83
2022/03/14 00:21:23;;;;;;;9.13;5.35;;;;;;;-10.58;54.15;99937.66;4932197;29;20100;-82
2022/03/14 00:23:56;;;;;;;12.32;6.35;;;;;;;-10.54;54.23;99939.44;4933191;29;20051;-83
2022/03/14 00:26:22;;;;;;;11.02;5.93;;;;;;;-10.46;53.98;99947.31;4919922;29;20095;-84
2022/03/14 00:28:50;;;;;;;11.32;6.07;;;;;;;-10.54;54.35;99934.28;4918237;29;20044;-86
2022/03/14 00:31:17;;;;;;;9.95;6.03;;;;;;;-10.47;53.93;99940.41;4918419;29;20412;-85
2022/03/14 00:33:43;;;;;;;16.90;5.78;;;;;;;-10.58;53.88;99933.38;4932753;29;20178;-83
2022/03/14 00:36:10;;;;;;;9.52;5.35;;;;;;;-10.54;54.24;99934.28;4917756;29;20444;-84
2022/03/14 00:38:36;;;;;;;4.95;3.95;;;;;;;-10.49;54.13;99927.47;4917717;29;20043;-84
2022/03/14 00:41:04;;;;;;;9.18;5.90;;;;;;;-10.61;54.12;99925.56;4917759;29;20055;-80
2022/03/14 00:43:30;;;;;;;9.32;5.47;;;;;;;-10.60;54.47;99927.34;4932956;29;20098;-85
2022/03/14 00:45:57;;;;;;;7.85;5.13;;;;;;;-10.76;54.57;99927.94;4917841;29;20048;-85
2022/03/14 00:48:23;;;;;;;14.32;6.45;;;;;;;-10.75;54.77;99932.28;4932682;29;20516;-83
2022/03/14 00:50:49;;;;;;;9.70;5.95;;;;;;;-10.72;54.48;99937.47;4917411;29;20048;-85
2022/03/14 00:53:15;;;;;;;10.60;5.57;;;;;;;-10.70;54.93;99938.38;4932486;29;20195;-84
2022/03/14 00:55:41;;;;;;;10.30;5.88;;;;;;;-10.69;54.73;99942.69;4931988;29;20054;-83
2022/03/14 00:58:07;;;;;;;13.00;5.68;;;;;;;-10.72;54.62;99945.22;4917474;29;20051;-83
2022/03/14 01:00:34;;;;;;;13.02;6.60;;;;;;;-10.81;54.60;99939.91;4931739;29;20040;-82
2022/03/14 01:03:00;;;;;;;7.97;4.95;;;;;;;-10.83;54.89;99934.75;4931475;29;20039;-83
2022/03/14 01:05:27;;;;;;;14.70;6.72;;;;;;;-10.71;54.72;99938.34;4917172;29;20488;-83
2022/03/14 01:07:54;;;;;;;10.52;6.45;;;;;;;-10.69;54.83;99939.22;4917659;29;20453;-90
2022/03/14 01:10:20;;;;;;;12.18;5.80;;;;;;;-10.73;55.30;99940.91;4916597;29;20572;-84
2022/03/14 01:12:46;;;;;;;11.85;7.05;;;;;;;-10.73;55.18;99940.91;4917032;29;20048;-81
2022/03/14 01:15:13;;;;;;;10.82;6.63;;;;;;;-10.72;54.82;99945.22;4931695;29;20048;-90
2022/03/14 01:17:40;;;;;;;13.48;7.20;;;;;;;-10.69;54.80;99945.25;4931978;29;20048;-83
2022/03/14 01:20:09;;;;;;;14.88;7.18;;;;;;;-10.63;54.90;99940.19;4931524;29;20083;-84
2022/03/14 01:22:35;;;;;;;12.60;6.22;;;;;;;-10.71;54.86;99931.47;4932917;29;20070;-83
2022/03/14 01:25:03;;;;;;;13.30;6.22;;;;;;;-10.73;54.80;99930.56;4917535;29;20044;-82
2022/03/14 01:27:29;;;;;;;11.52;7.03;;;;;;;-10.78;55.01;99929.63;4916547;29;20047;-83
2022/03/14 01:29:56;;;;;;;14.15;6.75;;;;;;;-10.92;55.20;99929.41;4916458;29;20047;-83
2022/03/14 01:32:22;;;;;;;11.57;6.68;;;;;;;-10.97;55.39;99932.78;4916253;29;20103;-83
2022/03/14 01:34:48;;;;;;;10.48;6.55;;;;;;;-11.00;55.20;99920.69;4932206;29;20079;-84
2022/03/14 01:37:15;;;;;;;26.77;6.70;;;;;;;-10.95;55.41;99938.81;4918363;29;20071;-83
2022/03/14 01:39:41;;;;;;;11.68;6.85;;;;;;;-11.01;55.25;99934.44;4942511;29;20436;-83
2022/03/14 01:42:07;;;;;;;9.65;6.00;;;;;;;-11.04;55.30;99940.44;4941724;29;20048;-82
2022/03/14 01:44:34;;;;;;;12.93;6.47;;;;;;;-11.08;54.95;99925.72;4937550;29;20058;-84
2022/03/14 01:47:00;;;;;;;10.45;5.43;;;;;;;-11.09;55.31;99934.34;4917971;29;20050;-83
2022/03/14 01:49:26;;;;;;;9.77;5.35;;;;;;;-11.15;55.02;99939.38;4917337;29;20411;-85
2022/03/14 01:51:57;;;;;;;10.27;5.97;;;;;;;-11.21;55.41;99922.91;4931769;29;20067;-86
2022/03/14 01:54:23;;;;;;;10.73;6.05;;;;;;;-11.21;56.07;99939.25;4917040;29;20488;-85
2022/03/14 01:56:50;;;;;;;18.00;6.47;;;;;;;-11.33;55.82;99936.50;4915797;29;20051;-84
2022/03/14 01:59:18;;;;;;;11.95;6.38;;;;;;;-11.32;55.86;99933.94;4931296;29;20485;-84
2022/03/14 02:01:44;;;;;;;10.68;6.60;;;;;;;-11.30;55.86;99945.16;4931515;29;20055;-86
2022/03/14 02:04:10;;;;;;;14.88;8.35;;;;;;;-11.27;55.83;99941.75;4916835;29;20045;-84
2022/03/14 02:06:37;;;;;;;9.23;6.03;;;;;;;-11.20;55.85;99942.75;4916492;29;20099;-81
2022/03/14 02:09:03;;;;;;;8.35;6.03;;;;;;;-11.16;55.63;99942.81;4916527;29;20067;-83
2022/03/14 02:11:29;;;;;;;12.65;6.72;;;;;;;-11.22;55.67;99941.84;4931285;29;20104;-83
2022/03/14 02:13:55;;;;;;;10.40;6.43;;;;;;;-11.29;55.89;99938.28;4932252;29;20052;-84
2022/03/14 02:16:21;;;;;;;13.80;7.50;;;;;;;-11.24;55.70;99944.41;4934980;29;20482;-84
2022/03/14 02:18:47;;;;;;;12.40;7.20;;;;;;;-11.25;55.68;99942.63;4935807;29;20040;-85
2022/03/14 02:21:13;;;;;;;11.48;6.47;;;;;;;-11.28;55.85;99952.94;4935791;29;20127;-85
2022/03/14 02:23:40;;;;;;;13.60;7.05;;;;;;;-11.43;55.71;99926.84;4936447;29;20079;-87
2022/03/14 02:26:06;;;;;;;13.85;6.18;;;;;;;-11.45;56.34;99944.88;4934713;29;20535;-84
2022/03/14 02:28:32;;;;;;;10.73;6.07;;;;;;;-11.33;56.08;99949.38;4930540;29;20051;-85
2022/03/14 02:31:02;;;;;;;14.98;7.13;;;;;;;-11.17;56.09;99950.50;4935101;29;20415;-86
2022/03/14 02:33:27;;;;;;;;;;;;;;;-11.19;56.11;99947.91;4934661;29;20070;-83
2022/03/14 02:35:53;;;;;;;12.07;4.65;;;;;;;-11.27;56.16;99957.25;4919461;29;20438;-82
2022/03/14 02:38:19;;;;;;;20.60;6.57;;;;;;;-11.21;56.93;99954.75;4933713;29;20091;-84
2022/03/14 02:40:47;;;;;;;11.45;6.28;;;;;;;-11.08;56.49;99951.53;4937986;29;20131;-86
2022/03/14 02:43:15;;;;;;;13.18;6.93;;;;;;;-11.01;55.71;99953.38;4953724;29;20058;-86
2022/03/14 02:45:43;;;;;;;10.55;6.25;;;;;;;-10.93;55.91;99950.94;4945914;29;20583;-85
2022/03/14 02:48:10;;;;;;;17.10;6.25;;;;;;;-10.91;55.54;99948.34;4919381;29;20453;-83
2022/03/14 02:50:43;;;;;;;9.52;5.85;;;;;;;-10.83;55.56;99957.09;4934331;29;20052;-85
2022/03/14 02:53:11;;;;;;;12.07;6.35;;;;;;;-10.81;55.50;99953.69;4920622;29;20039;-85
2022/03/14 02:55:37;;;;;;;9.55;5.97;;;;;;;-10.87;55.80;99955.31;4938679;29;20054;-82
2022/03/14 02:58:04;;;;;;;9.95;6.00;;;;;;;-10.84;55.44;99961.38;4938167;29;20138;-88
2022/03/14 03:00:30;;;;;;;24.38;5.35;;;;;;;-10.86;55.75;99972.56;4937222;29;20044;-86
2022/03/14 03:02:56;;;;;;;13.98;6.65;;;;;;;-10.91;56.04;99966.44;4939379;29;20054;-86
2022/03/14 03:05:22;;;;;;;11.95;6.72;;;;;;;-10.81;55.97;99965.75;4939137;29;20040;-86
2022/03/14 03:07:49;;;;;;;14.02;7.00;;;;;;;-10.73;55.45;99977.06;4932837;29;20095;-80
2022/03/14 03:10:23;;;;;;;14.60;7.63;;;;;;;-10.59;55.79;99972.97;4928477;29;20523;-84
2022/03/14 03:12:49;;;;;;;12.40;7.20;;;;;;;-10.41;58.40;99969.81;4923389;29;20556;-81
2022/03/14 03:15:16;;;;;;;13.38;7.95;;;;;;;-10.14;56.29;99965.81;4919772;29;20043;-87
2022/03/14 03:17:42;;;;;;;37.75;8.07;;;;;;;-10.15;55.20;99970.13;4919317;29;20504;-86
2022/03/14 03:20:09;;;;;;;25.75;7.95;;;;;;;-10.08;55.07;99960.72;4934171;29;20051;-89
2022/03/14 03:22:38;;;;;;;17.05;7.93;;;;;;;-10.04;54.40;99972.81;4917849;29;20139;-85
2022/03/14 03:25:06;;;;;;;22.73;8.98;;;;;;;-9.96;54.42;99971.22;4935434;29;20071;-86
2022/03/14 03:27:35;;;;;;;16.35;8.05;;;;;;;-10.03;54.18;99954.75;4934097;29;20180;-89
2022/03/14 03:30:04;;;;;;;26.63;8.23;;;;;;;-10.06;54.41;99966.78;4935795;29;20076;-88
2022/03/14 03:32:30;;;;;;;37.83;7.88;;;;;;;-10.05;54.30;99969.38;4935398;29;20292;-88
2022/03/14 03:34:56;;;;;;;8.30;4.85;;;;;;;-10.11;54.46;99977.06;4934257;29;20048;-83
2022/03/14 03:37:25;;;;;;;20.27;8.00;;;;;;;-10.35;54.62;99953.50;4919202;29;20184;-82
2022/03/14 03:39:54;;;;;;;18.90;7.22;;;;;;;-10.22;54.79;99963.13;4902635;29;20111;-81
2022/03/14 03:42:20;;;;;;;13.30;7.13;;;;;;;-10.06;54.68;99970.22;4918534;29;20495;-83
2022/03/14 03:44:46;;;;;;;14.18;6.72;;;;;;;-9.94;54.48;99969.50;4918328;29;20052;-87
2022/03/14 03:47:12;;;;;;;12.88;7.15;;;;;;;-9.86;54.07;99977.38;4935526;29;20120;-81
2022/03/14 03:49:38;;;;;;;14.68;7.15;;;;;;;-9.80;53.43;99969.69;4934056;29;20503;-83
2022/03/14 03:52:06;;;;;;;11.65;7.03;;;;;;;-9.72;53.57;99974.94;4904309;29;20040;-84
2022/03/14 03:54:31;;;;;;;16.05;8.02;;;;;;;-9.71;53.54;99962.03;4921471;29;20047;-80
2022/03/14 03:56:57;;;;;;;13.93;7.72;;;;;;;-9.63;53.23;99970.72;4934374;29;20040;-88
2022/03/14 03:59:23;;;;;;;13.52;8.23;;;;;;;-9.64;53.21;99973.31;4917835;29;20051;-79
2022/03/14 04:01:50;;;;;;;16.30;7.85;;;;;;;-9.50;53.03;99976.06;4924312;29;20039;-80
2022/03/14 04:04:16;;;;;;;14.77;7.78;;;;;;;-9.52;52.89;99978.63;4922565;29;20062;-79
2022/03/14 04:06:42;;;;;;;21.42;8.93;;;;;;;-9.35;53.03;99978.81;4918247;29;20052;-81
2022/03/14 04:09:10;;;;;;;17.45;8.57;;;;;;;-9.23;52.65;99968.56;4916932;29;20500;-80
2022/03/14 04:11:41;;;;;;;22.48;8.02;;;;;;;-9.14;52.64;99975.53;4932802;29;20618;-79
2022/03/14 04:14:09;;;;;;;23.80;8.02;;;;;;;-8.91;52.20;99993.88;4916945;29;20476;-83
2022/03/14 04:16:36;;;;;;;15.23;9.00;;;;;;;-8.77;51.63;99989.69;4932736;29;20573;-81
2022/03/14 04:19:02;;;;;;;16.10;9.38;;;;;;;-8.64;51.50;99988.94;4917918;29;20043;-79
2022/03/14 04:21:28;;;;;;;20.30;10.07;;;;;;;-8.61;51.25;99994.16;4932612;29;20056;-80
2022/03/14 04:23:56;;;;;;;14.65;8.85;;;;;;;-8.63;51.27;99989.81;4915976;29;20143;-80
2022/03/14 04:26:22;;;;;;;18.95;9.10;;;;;;;-8.53;50.99;99994.22;4930531;29;20040;-80
2022/03/14 04:28:48;;;;;;;20.67;8.55;;;;;;;-8.43;51.09;99992.53;4931019;29;20111;-80
2022/03/14 04:31:17;;;;;;;24.05;9.23;;;;;;;-8.45;50.74;99978.72;4932389;29;20039;-80
2022/03/14 04:33:43;;;;;;;29.70;8.77;;;;;;;-8.35;50.54;99985.63;4932052;29;20087;-80
2022/03/14 04:36:09;;;;;;;23.58;8.55;;;;;;;-8.31;50.17;99987.44;4932308;29;20072;-80
2022/03/14 04:38:35;;;;;;;21.98;8.02;;;;;;;-8.28;50.36;99990.00;4931425;29;20412;-79
2022/03/14 04:41:00;;;;;;;20.30;8.30;;;;;;;-8.14;50.23;99990.97;4932194;29;20047;-81
2022/03/14 04:43:27;;;;;;;28.08;10.30;;;;;;;-8.10;49.97;99987.53;4931951;29;20044;-81
2022/03/14 04:45:53;;;;;;;17.83;9.85;;;;;;;-8.03;49.66;99990.16;4932496;29;20083;-80
2022/03/14 04:48:19;;;;;;;35.63;9.65;;;;;;;-8.04;49.76;99985.84;4931934;29;20072;-80
2022/03/14 04:50:45;;;;;;;19.10;9.43;;;;;;;-7.90;49.83;99999.72;4916192;29;20051;-81
2022/03/14 04:53:11;;;;;;;17.95;10.70;;;;;;;-7.79;49.76;99992.00;4900273;29;20508;-80
2022/03/14 04:55:37;;;;;;;30.23;11.63;;;;;;;-7.73;49.39;99998.09;4916050;29;20082;-81
2022/03/14 04:58:03;;;;;;;34.50;11.82;;;;;;;-7.67;49.37;99987.75;4931949;29;20134;-81
2022/03/14 05:00:29;;;;;;;26.98;11.15;;;;;;;-7.60;49.19;99989.50;4931692;29;20484;-80
2022/03/14 05:03:06;;;;;;;20.17;11.27;;;;;;;-7.51;48.93;99993.00;4931469;29;20516;-80
2022/03/14 05:05:37;;;;;;;22.75;11.32;;;;;;;-7.35;48.85;99999.94;4916933;29;20044;-80
2022/03/14 05:08:03;;;;;;;22.80;11.00;;;;;;;-7.24;48.56;99999.97;4915146;29;20055;-80
2022/03/14 05:10:29;;;;;;;25.92;10.18;;;;;;;-7.22;48.09;100003.44;4915832;29;20083;-79
2022/03/14 05:12:59;;;;;;;17.45;9.27;;;;;;;-7.04;48.08;100005.22;4931522;29;20102;-79
2022/03/14 05:15:25;;;;;;;20.75;8.45;;;;;;;-7.07;47.79;100000.00;4916858;29;20099;-80
2022/03/14 05:17:53;;;;;;;17.92;9.98;;;;;;;-7.10;47.63;99991.34;4917226;29;20063;-81
2022/03/14 05:20:19;;;;;;;20.55;9.20;;;;;;;-7.11;47.67;99989.63;4917084;29;20131;-83
2022/03/14 05:22:48;;;;;;;24.73;9.43;;;;;;;-7.01;47.59;100000.03;4931506;29;20097;-80
2022/03/14 05:25:16;;;;;;;15.55;10.30;;;;;;;-7.01;47.86;99989.63;4917984;29;20052;-82
2022/03/14 05:27:42;;;;;;;20.38;9.30;;;;;;;-6.89;47.61;99987.03;4910051;29;20080;-82
2022/03/14 05:30:09;;;;;;;22.00;9.70;;;;;;;-6.94;47.43;99987.03;4914697;29;20107;-80
2022/03/14 05:32:42;;;;;;;21.92;11.73;;;;;;;-6.87;47.65;99995.72;4946688;29;20048;-81
2022/03/14 05:35:15;;;;;;;25.10;11.82;;;;;;;-6.75;47.57;99994.84;4933533;29;20047;-82
2022/03/14 05:37:46;;;;;;;25.88;12.85;;;;;;;-6.76;47.54;99993.13;4931590;29;20102;-80
2022/03/14 05:40:15;;;;;;;36.17;13.48;;;;;;;-6.71;47.67;99994.84;4916801;29;20075;-80
2022/03/14 05:42:45;;;;;;;23.17;11.80;;;;;;;-6.54;47.57;99981.84;4917411;29;20048;-80
2022/03/14 05:45:13;;;;;;;31.27;11.73;;;;;;;-6.32;47.25;99992.22;4916782;29;20492;-80
2022/03/14 05:47:39;;;;;;;22.67;12.02;;;;;;;-6.21;46.91;99988.72;4931681;29;20062;-79
2022/03/14 05:50:06;;;;;;;19.83;11.57;;;;;;;-6.15;46.47;99995.66;4933487;29;20056;-80
2022/03/14 05:52:32;;;;;;;19.10;10.60;;;;;;;-6.04;45.92;100003.47;4919398;29;20060;-82
2022/03/14 05:54:58;;;;;;;23.08;11.18;;;;;;;-6.01;46.09;99995.66;4919405;29;20101;-79
2022/03/14 05:57:24;;;;;;;17.45;9.88;;;;;;;-5.91;45.99;99989.50;4921018;29;20492;-81
2022/03/14 05:59:51;;;;;;;27.55;10.25;;;;;;;-5.76;45.47;100005.06;4935281;29;20044;-82
2022/03/14 06:02:24;;;;;;;18.98;10.50;;;;;;;-5.66;45.44;99993.75;4903784;29;20048;-80
2022/03/14 06:04:52;;;;;;;17.40;9.25;;;;;;;-5.43;45.34;100001.44;4919539;29;20052;-79
2022/03/14 06:07:19;;;;;;;17.92;8.80;;;;;;;-5.37;44.59;99992.75;4934946;29;20111;-81
2022/03/14 06:09:46;;;;;;;13.38;8.13;;;;;;;-5.49;44.61;99992.78;4920610;29;20071;-81
2022/03/14 06:12:31;;;;;;;20.38;9.40;;;;;;;-5.45;44.48;99989.34;4935106;29;20040;-81
2022/03/14 06:14:58;;;;;;;21.58;8.15;;;;;;;-5.34;44.64;99987.53;4903375;29;20507;-81
2022/03/14 06:17:25;;;;;;;15.93;7.50;;;;;;;-5.46;44.22;99992.78;4934793;29;20044;-81
2022/03/14 06:19:51;;;;;;;21.17;8.10;;;;;;;-5.65;44.07;99987.66;4924654;29;20103;-81
2022/03/14 06:22:18;;;;;;;19.70;8.80;;;;;;;-5.62;44.52;99984.19;4919235;29;20470;-83
2022/03/14 06:24:47;;;;;;;19.25;8.38;;;;;;;-5.32;44.73;99985.78;4934647;29;20056;-81
2022/03/14 06:27:24;;;;;;;15.43;7.95;;;;;;;-5.10;43.58;99990.88;4918525;29;20051;-81
2022/03/14 06:29:50;;;;;;;19.50;8.30;;;;;;;-5.12;43.78;99994.31;4918731;29;20055;-82
2022/03/14 06:32:16;;;;;;;19.25;8.95;;;;;;;-4.94;43.38;99997.69;4918564;29;20052;-82
2022/03/14 06:34:43;;;;;;;18.48;9.25;;;;;;;-4.94;43.13;99995.09;4934484;29;20040;-80
2022/03/14 06:37:10;;;;;;;15.10;7.57;;;;;;;-5.09;42.80;99976.94;4934761;29;20083;-81
2022/03/14 06:39:36;;;;;;;18.02;8.60;;;;;;;-5.04;42.49;99983.00;4934450;29;20202;-80
2022/03/14 06:42:08;;;;;;;15.80;9.50;;;;;;;-4.97;42.66;99989.91;4934376;29;20385;-81
2022/03/14 06:44:36;;;;;;;14.73;8.13;;;;;;;-4.91;42.17;99985.50;4934208;29;20048;-81
2022/03/14 06:47:02;;;;;;;19.85;8.43;;;;;;;-4.73;41.95;99987.13;4934229;29;20133;-80
2022/03/14 06:49:29;;;;;;;20.63;8.43;;;;;;;-4.56;42.11;99986.97;4934053;29;20044;-81
2022/03/14 06:51:55;;;;;;;17.77;7.55;;;;;;;-4.29;41.54;99972.81;4902536;29;20397;-80
2022/03/14 06:54:20;;;;;;;16.13;7.85;;;;;;;-4.06;41.00;99992.59;4933707;29;20050;-79
2022/03/14 06:56:47;;;;;;;14.63;8.10;;;;;;;-4.08;40.54;99989.16;4933801;29;20052;-80
2022/03/14 06:59:13;;;;;;;15.13;8.88;;;;;;;-3.90;40.62;99988.97;4919255;29;20508;-82
2022/03/14 07:01:39;;;;;;;15.57;8.27;;;;;;;-3.91;40.50;99984.63;4918402;29;20051;-80
2022/03/14 07:04:06;;;;;;;16.10;8.60;;;;;;;-3.75;40.33;99986.16;4919368;29;20055;-81
2022/03/14 07:06:32;;;;;;;14.70;7.97;;;;;;;-3.53;40.58;99975.47;4934048;29;20103;-80
2022/03/14 07:08:58;;;;;;;11.15;6.85;;;;;;;-3.54;39.91;99976.31;4919067;29;20107;-81
2022/03/14 07:11:24;;;;;;;20.27;9.75;;;;;;;-3.31;39.79;99987.38;4917941;29;20048;-80
2022/03/14 07:13:49;;;;;;;31.63;12.50;;;;;;;-3.33;39.95;99983.91;4919053;29;20048;-80
2022/03/14 07:16:15;;;;;;;27.55;10.23;;;;;;;-3.28;39.56;99986.44;4918137;29;20040;-82
2022/03/14 07:18:41;;;;;;;48.25;12.93;;;;;;;-3.15;39.77;99977.56;4918206;29;20168;-81
2022/03/14 07:21:08;;;;;;;26.17;11.77;;;;;;;-3.21;39.82;99983.72;4917711;29;20129;-81
2022/03/14 07:23:34;;;;;;;25.70;11.82;;;;;;;-3.13;39.50;99970.53;4918805;29;20057;-81
2022/03/14 07:26:00;;;;;;;31.52;14.60;;;;;;;-2.90;39.10;99975.44;4918867;29;20098;-79
2022/03/14 07:28:26;;;;;;;30.83;15.77;;;;;;;-3.00;39.20;99981.69;4917598;29;20047;-81
2022/03/14 07:30:52;;;;;;;43.90;19.80;;;;;;;-2.85;39.18;99981.47;4918817;29;20100;-80
2022/03/14 07:33:18;;;;;;;59.33;22.55;;;;;;;-2.67;38.45;99969.84;4918488;29;20143;-81
2022/03/14 07:35:44;;;;;;;43.40;20.40;;;;;;;-2.92;38.64;99974.59;4917796;29;20040;-79
2022/03/14 07:38:10;;;;;;;43.67;22.00;;;;;;;-2.85;38.73;99980.63;4919250;29;20092;-80
2022/03/14 07:40:37;;;;;;;41.60;19.17;;;;;;;-2.80;38.59;99984.88;4918702;29;20496;-81
2022/03/14 07:43:04;;;;;;;34.53;18.27;;;;;;;-2.86;38.86;99976.25;4917274;29;20138;-80
2022/03/14 07:45:32;;;;;;;42.20;20.30;;;;;;;-2.51;38.73;99983.56;4918522;29;20043;-81
2022/03/14 07:47:58;;;;;;;37.85;17.90;;;;;;;-2.15;38.48;99974.16;4933282;29;20100;-81
2022/03/14 07:50:26;;;;;;;71.65;24.17;;;;;;;-2.07;37.90;99976.66;4932736;29;20040;-81
2022/03/14 07:52:55;;;;;;;53.97;25.55;;;;;;;-2.01;37.52;99972.16;4932937;29;20047;-80
2022/03/14 07:55:22;;;;;;;62.60;27.85;;;;;;;-1.83;37.22;99970.09;4917310;29;20044;-82
2022/03/14 07:57:48;;;;;;;70.72;32.60;;;;;;;-1.77;37.26;99972.56;4932783;29;20044;-81
2022/03/14 08:00:18;;;;;;;58.13;25.55;;;;;;;-1.78;37.13;99971.72;4933429;29;20047;-80
2022/03/14 08:02:47;;;;;;;64.85;27.42;;;;;;;-1.88;38.37;99980.69;4918260;29;20047;-81
2022/03/14 08:05:15;;;;;;;75.60;32.13;;;;;;;-1.93;37.96;99974.63;4932624;29;20051;-79
2022/03/14 08:07:44;;;;;;;75.63;35.75;;;;;;;-1.75;37.89;99974.28;4932334;29;20051;-81
2022/03/14 08:10:12;;;;;;;65.93;31.90;;;;;;;-1.20;37.33;99974.91;4918172;29;20056;-80
2022/03/14 08:12:46;;;;;;;56.30;26.90;;;;;;;-0.92;36.76;99979.53;4931708;29;20050;-86
2022/03/14 08:15:23;;;;;;;72.15;29.65;;;;;;;-0.88;36.82;99984.66;4917330;29;20040;-81
2022/03/14 08:17:50;;;;;;;52.35;24.45;;;;;;;-0.49;36.41;99981.97;4917960;29;20135;-83
2022/03/14 08:20:16;;;;;;;47.83;22.02;;;;;;;-0.39;35.59;99966.84;4932506;29;20044;-78
2022/03/14 08:22:43;;;;;;;26.63;14.60;;;;;;;-0.68;35.54;99975.44;4917620;29;20055;-80
2022/03/14 08:25:10;;;;;;;26.27;12.13;;;;;;;-0.54;35.58;99968.09;4917885;29;20079;-81
2022/03/14 08:27:37;;;;;;;25.27;13.23;;;;;;;-0.35;34.89;99974.59;4917672;29;20075;-81
2022/03/14 08:30:04;;;;;;;22.27;11.85;;;;;;;0.01;35.47;99974.56;4932554;29;20048;-81
2022/03/14 08:32:32;;;;;;;24.27;11.05;;;;;;;0.14;34.54;99973.31;4917740;29;20385;-81
2022/03/14 08:35:00;;;;;;;20.17;10.45;;;;;;;0.41;34.45;99973.44;4932321;29;20134;-80
2022/03/14 08:37:26;;;;;;;22.48;12.45;;;;;;;0.66;33.96;99965.72;4916098;29;20048;-82
2022/03/14 08:39:52;;;;;;;38.80;20.77;;;;;;;0.78;33.21;99954.81;4932018;29;20047;-82
2022/03/14 08:42:19;;;;;;;29.30;14.90;;;;;;;1.02;33.11;99969.00;4932297;29;20492;-80
2022/03/14 08:44:45;;;;;;;14.20;8.57;;;;;;;0.84;32.91;99964.31;4931879;29;20040;-81
2022/03/14 08:47:11;;;;;;;14.57;8.30;;;;;;;0.99;33.14;99971.75;4931911;29;20560;-83
2022/03/14 08:49:37;;;;;;;13.70;7.15;;;;;;;0.93;32.88;99974.53;4931911;29;20404;-82
2022/03/14 08:52:04;;;;;;;7.90;5.57;;;;;;;0.93;32.30;99971.91;4916054;29;20063;-81
2022/03/14 08:54:30;;;;;;;8.25;5.80;;;;;;;0.98;31.64;99977.91;4917110;29;20047;-82
2022/03/14 08:56:56;;;;;;;12.30;6.43;;;;;;;1.09;31.82;99970.56;4931884;29;20051;-82
2022/03/14 08:59:21;;;;;;;11.95;6.85;;;;;;;1.44;31.64;99960.66;4931922;29;20044;-81
2022/03/14 09:01:47;;;;;;;11.95;7.43;;;;;;;1.44;31.87;99960.66;4931629;29;20040;-79
2022/03/14 09:04:13;;;;;;;10.05;6.57;;;;;;;1.36;31.29;99949.50;4916121;29;20055;-81
2022/03/14 09:06:42;;;;;;;9.73;6.70;;;;;;;1.06;31.98;99962.75;4931656;29;20510;-81
2022/03/14 09:09:11;;;;;;;11.27;7.10;;;;;;;1.27;32.04;99968.22;4931379;29;20059;-80
2022/03/14 09:11:37;;;;;;;11.95;6.63;;;;;;;1.46;32.93;99967.56;4916994;29;20492;-82
2022/03/14 09:14:03;;;;;;;21.15;6.78;;;;;;;1.38;32.28;99961.69;4917101;29;20146;-80
2022/03/14 09:16:29;;;;;;;15.15;6.60;;;;;;;1.65;32.18;99965.19;4941703;29;20503;-83
2022/03/14 09:18:55;;;;;;;12.63;6.43;;;;;;;1.77;31.92;99948.13;4928810;29;20059;-82
2022/03/14 09:21:21;;;;;;;13.88;6.55;;;;;;;1.66;31.40;99956.38;4922570;29;20563;-80
2022/03/14 09:23:47;;;;;;;11.55;6.43;;;;;;;1.78;32.39;99968.28;4938025;29;20052;-80
2022/03/14 09:26:13;;;;;;;15.88;5.78;;;;;;;1.87;31.69;99960.03;4924516;29;20058;-81
2022/03/14 09:28:44;;;;;;;10.35;5.60;;;;;;;1.99;32.06;99961.41;4939790;29;20419;-79
2022/03/14 09:31:13;;;;;;;8.75;5.85;;;;;;;2.27;31.55;99957.78;4937346;29;20036;-82
2022/03/14 09:33:40;;;;;;;9.13;5.53;;;;;;;2.38;31.12;99953.84;4921320;29;20420;-81
2022/03/14 09:36:10;;;;;;;7.80;5.85;;;;;;;2.49;31.64;99955.25;4920218;29;20123;-82
2022/03/14 09:38:36;;;;;;;13.30;5.70;;;;;;;2.51;31.02;99958.66;4932438;29;20078;-80
2022/03/14 09:41:04;;;;;;;8.52;4.93;;;;;;;2.40;30.75;99951.13;4917523;29;20048;-81
2022/03/14 09:43:32;;;;;;;6.30;4.97;;;;;;;2.63;30.77;99945.00;4931643;29;20518;-81
2022/03/14 09:46:01;;;;;;;9.20;5.25;;;;;;;2.77;30.81;99952.41;4915251;29;20040;-81
2022/03/14 09:48:36;;;;;;;10.60;5.30;;;;;;;2.77;31.08;99939.19;4915528;29;20048;-81
2022/03/14 09:51:05;;;;;;;5.25;3.88;;;;;;;2.77;30.52;99950.63;4931568;29;20072;-81
2022/03/14 09:53:33;;;;;;;12.70;5.35;;;;;;;2.57;31.03;99959.31;4915349;29;20091;-81
2022/03/14 09:55:59;;;;;;;13.50;5.53;;;;;;;2.66;31.02;99956.31;4915364;29;20139;-82
2022/03/14 09:58:26;;;;;;;8.85;4.15;;;;;;;2.48;31.24;99956.13;4915219;29;20567;-81
2022/03/14 10:00:53;;;;;;;12.68;4.60;;;;;;;1.84;31.26;99956.66;4916035;29;20040;-81
2022/03/14 10:03:21;;;;;;;6.65;4.97;;;;;;;1.56;32.09;99954.13;4931300;29;20071;-80
2022/03/14 10:05:47;;;;;;;10.50;5.20;;;;;;;1.35;32.54;99966.19;4915025;29;20048;-81
2022/03/14 10:08:14;;;;;;;11.57;5.30;;;;;;;1.42;32.60;99962.47;4916517;29;20059;-82
2022/03/14 10:10:42;;;;;;;7.20;5.00;;;;;;;1.67;32.94;99955.47;4931103;29;20460;-82
2022/03/14 10:13:10;;;;;;;7.35;4.80;;;;;;;1.68;32.29;99949.28;4915174;29;20076;-81
2022/03/14 10:15:40;;;;;;;10.82;5.00;;;;;;;1.66;33.14;99951.13;4931614;29;20067;-81
2022/03/14 10:18:16;;;;;;;;;;;;;;;1.98;33.19;99957.03;4915562;29;20059;-80
2022/03/14 10:21:05;;;;;;;8.82;4.78;;;;;;;1.77;33.29;99955.13;4915147;29;20379;-81
2022/03/14 10:23:33;;;;;;;11.55;5.47;;;;;;;1.36;33.51;99975.84;4899342;29;20054;-80
2022/03/14 10:26:00;;;;;;;13.85;4.97;;;;;;;1.32;34.01;99968.97;4931163;29;20083;-80
2022/03/14 10:28:31;;;;;;;9.73;5.80;;;;;;;1.49;33.97;99963.13;4930880;29;20044;-81
2022/03/14 10:31:01;;;;;;;6.90;5.15;;;;;;;1.54;33.81;99962.03;4931298;29;20587;-80
2022/03/14 10:33:30;;;;;;;7.95;5.82;;;;;;;1.21;34.47;99967.53;4931141;29;20171;-81
2022/03/14 10:35:57;;;;;;;6.75;4.93;;;;;;;1.29;34.65;99958.53;4931156;29;20048;-81
2022/03/14 10:38:26;;;;;;;8.18;5.18;;;;;;;1.39;34.74;99959.91;4934059;29;20056;-80
2022/03/14 10:40:56;;;;;;;9.25;4.97;;;;;;;1.44;34.41;99969.41;4919875;29;20054;-79
2022/03/14 10:43:27;;;;;;;8.63;5.45;;;;;;;1.53;34.64;99955.06;4920844;29;20074;-80
2022/03/14 10:45:57;;;;;;;9.70;5.47;;;;;;;1.61;34.59;99974.09;4934173;29;20044;-80
2022/03/14 10:48:38;;;;;;;9.40;5.82;;;;;;;1.40;35.02;99962.53;4933979;29;20496;-80
2022/03/14 10:51:06;;;;;;;9.10;5.97;;;;;;;1.88;34.47;99963.53;4919415;29;20048;-82
2022/03/14 10:53:34;;;;;;;11.07;5.53;;;;;;;1.85;34.49;99961.03;4933798;29;20504;-80
2022/03/14 10:56:01;;;;;;;8.77;6.32;;;;;;;1.82;34.43;99964.63;4919314;29;20070;-80
2022/03/14 10:58:33;;;;;;;10.77;6.30;;;;;;;1.82;34.62;99961.13;4917973;29;20048;-80
2022/03/14 11:01:02;;;;;;;9.50;5.80;;;;;;;1.73;34.77;99970.22;4934004;29;20050;-80
2022/03/14 11:03:30;;;;;;;11.50;6.10;;;;;;;1.94;34.81;99966.84;4918469;29;20187;-81
2022/03/14 11:05:59;;;;;;;9.30;5.95;;;;;;;2.04;34.57;99959.47;4918118;29;20047;-79
2022/03/14 11:08:25;;;;;;;8.50;6.18;;;;;;;2.15;34.56;99969.66;4917806;29;20047;-80
2022/03/14 11:10:51;;;;;;;7.95;6.15;;;;;;;2.37;34.42;99959.16;4919040;29;20398;-80
2022/03/14 11:13:17;;;;;;;9.90;5.93;;;;;;;2.41;34.40;99969.56;4919045;29;20058;-80
2022/03/14 11:15:43;;;;;;;8.95;5.80;;;;;;;2.39;34.07;99959.97;4933782;29;20126;-81
2022/03/14 11:18:08;;;;;;;7.68;5.65;;;;;;;2.82;33.69;99963.63;4917912;29;20044;-80
2022/03/14 11:20:35;;;;;;;8.52;5.32;;;;;;;2.98;32.87;99972.72;4933961;29;20460;-81
2022/03/14 11:23:01;;;;;;;7.55;4.65;;;;;;;2.54;33.54;99964.69;4933385;29;20048;-81
2022/03/14 11:25:28;;;;;;;7.47;5.30;;;;;;;2.82;32.80;99963.63;4918910;29;20052;-81